sensor_id;sensor_type;location;lat;lon;timestamp;pressure;altitude;pressure_sealevel;temperature;humidity
11198;BME280;5655;48.744;9.162;2023-04-10T00:00:22;96717.53;;;7.87;100.00
11198;BME280;5655;48.744;9.162;2023-04-10T00:02:48;96720.53;;;7.97;100.00
11198;BME280;5655;48.744;9.162;2023-04-10T00:05:13;96719.56;;;7.78;100.00
11198;BME280;5655;48.744;9.162;2023-04-10T00:07:38;96719.28;;;8.07;100.00
11198;BME280;5655;48.744;9.162;2023-04-10T00:10:04;96712.84;;;8.08;100.00
11198;BME280;5655;48.744;9.162;2023-04-10T00:12:29;96717.13;;;7.85;100.00
11198;BME280;5655;48.744;9.162;2023-04-10T00:14:55;96712.56;;;7.85;100.00
11198;BME280;5655;48.744;9.162;2023-04-10T00:17:20;96717.50;;;7.99;100.00
11198;BME280;5655;48.744;9.162;2023-04-10T00:19:45;96709.56;;;7.87;100.00
11198;BME280;5655;48.744;9.162;2023-04-10T00:22:11;96711.75;;;7.97;100.00
11198;BME280;5655;48.744;9.162;2023-04-10T00:24:36;96708.88;;;8.02;100.00
11198;BME280;5655;48.744;9.162;2023-04-10T00:27:01;96708.66;;;7.83;100.00
11198;BME280;5655;48.744;9.162;2023-04-10T00:29:27;96704.13;;;7.83;100.00
11198;BME280;5655;48.744;9.162;2023-04-10T00:31:52;96707.09;;;7.82;100.00
11198;BME280;5655;48.744;9.162;2023-04-10T00:34:17;96703.56;;;7.78;100.00
11198;BME280;5655;48.744;9.162;2023-04-10T00:36:44;96700.56;;;7.91;100.00
11198;BME280;5655;48.744;9.162;2023-04-10T00:39:10;96700.44;;;7.88;100.00
11198;BME280;5655;48.744;9.162;2023-04-10T00:41:36;96701.34;;;7.80;100.00
11198;BME280;5655;48.744;9.162;2023-04-10T00:44:02;96698.19;;;7.50;100.00
11198;BME280;5655;48.744;9.162;2023-04-10T00:46:28;96696.50;;;7.57;100.00
11198;BME280;5655;48.744;9.162;2023-04-10T00:48:55;96705.59;;;7.56;100.00
11198;BME280;5655;48.744;9.162;2023-04-10T00:51:20;96690.50;;;7.48;100.00
11198;BME280;5655;48.744;9.162;2023-04-10T00:53:50;96693.59;;;7.38;100.00
11198;BME280;5655;48.744;9.162;2023-04-10T00:56:18;96686.03;;;7.64;100.00
11198;BME280;5655;48.744;9.162;2023-04-10T00:58:44;96688.94;;;7.59;100.00
11198;BME280;5655;48.744;9.162;2023-04-10T01:01:10;96686.97;;;7.44;100.00
11198;BME280;5655;48.744;9.162;2023-04-10T01:03:37;96687.16;;;7.51;100.00
11198;BME280;5655;48.744;9.162;2023-04-10T01:14:18;96693.72;;;7.66;100.00
11198;BME280;5655;48.744;9.162;2023-04-10T01:16:52;96698.06;;;7.58;100.00
11198;BME280;5655;48.744;9.162;2023-04-10T01:19:42;96698.94;;;7.62;100.00
11198;BME280;5655;48.744;9.162;2023-04-10T01:22:15;96696.72;;;7.52;100.00
11198;BME280;5655;48.744;9.162;2023-04-10T01:27:38;96696.41;;;7.42;100.00
11198;BME280;5655;48.744;9.162;2023-04-10T01:30:08;96698.94;;;7.38;100.00
11198;BME280;5655;48.744;9.162;2023-04-10T01:32:37;96689.41;;;7.49;100.00
11198;BME280;5655;48.744;9.162;2023-04-10T01:35:06;96694.50;;;7.18;100.00
11198;BME280;5655;48.744;9.162;2023-04-10T01:37:36;96694.50;;;7.42;100.00
11198;BME280;5655;48.744;9.162;2023-04-10T01:40:04;96700.25;;;7.56;100.00
11198;BME280;5655;48.744;9.162;2023-04-10T01:42:35;96687.19;;;7.27;100.00
11198;BME280;5655;48.744;9.162;2023-04-10T01:45:03;96684.31;;;7.32;100.00
11198;BME280;5655;48.744;9.162;2023-04-10T01:47:32;96694.94;;;7.08;100.00
11198;BME280;5655;48.744;9.162;2023-04-10T01:49:59;96674.00;;;7.18;100.00
11198;BME280;5655;48.744;9.162;2023-04-10T01:52:25;96677.53;;;7.10;100.00
11198;BME280;5655;48.744;9.162;2023-04-10T01:54:52;96662.88;;;7.04;100.00
11198;BME280;5655;48.744;9.162;2023-04-10T01:57:18;96673.41;;;7.13;100.00
11198;BME280;5655;48.744;9.162;2023-04-10T01:59:44;96668.28;;;6.83;100.00
11198;BME280;5655;48.744;9.162;2023-04-10T02:02:09;96667.00;;;6.90;100.00
11198;BME280;5655;48.744;9.162;2023-04-10T02:04:37;96668.78;;;7.10;100.00
11198;BME280;5655;48.744;9.162;2023-04-10T02:07:06;96670.53;;;7.30;100.00
11198;BME280;5655;48.744;9.162;2023-04-10T02:09:49;96669.44;;;7.19;100.00
11198;BME280;5655;48.744;9.162;2023-04-10T02:12:27;96666.56;;;7.24;100.00
11198;BME280;5655;48.744;9.162;2023-04-10T02:14:55;96668.22;;;7.28;100.00
11198;BME280;5655;48.744;9.162;2023-04-10T02:17:26;96662.09;;;7.04;100.00
11198;BME280;5655;48.744;9.162;2023-04-10T02:19:53;96670.75;;;6.89;100.00
11198;BME280;5655;48.744;9.162;2023-04-10T02:22:19;96664.97;;;6.74;100.00
11198;BME280;5655;48.744;9.162;2023-04-10T02:24:46;96680.72;;;6.92;100.00
11198;BME280;5655;48.744;9.162;2023-04-10T02:27:11;96685.47;;;6.74;100.00
11198;BME280;5655;48.744;9.162;2023-04-10T02:29:37;96677.16;;;6.88;100.00
11198;BME280;5655;48.744;9.162;2023-04-10T02:32:03;96679.16;;;6.91;100.00
11198;BME280;5655;48.744;9.162;2023-04-10T02:34:28;96682.72;;;6.95;100.00
11198;BME280;5655;48.744;9.162;2023-04-10T02:36:53;96676.66;;;6.61;100.00
11198;BME280;5655;48.744;9.162;2023-04-10T02:39:19;96678.16;;;6.83;100.00
11198;BME280;5655;48.744;9.162;2023-04-10T02:41:44;96681.47;;;6.68;100.00
11198;BME280;5655;48.744;9.162;2023-04-10T02:44:10;96679.50;;;6.77;100.00
11198;BME280;5655;48.744;9.162;2023-04-10T02:46:35;96677.56;;;6.65;100.00
11198;BME280;5655;48.744;9.162;2023-04-10T02:49:01;96673.91;;;6.58;100.00
11198;BME280;5655;48.744;9.162;2023-04-10T02:51:26;96685.72;;;6.81;100.00
11198;BME280;5655;48.744;9.162;2023-04-10T02:53:51;96683.31;;;6.55;100.00
11198;BME280;5655;48.744;9.162;2023-04-10T02:56:17;96688.47;;;6.72;100.00
11198;BME280;5655;48.744;9.162;2023-04-10T02:58:43;96681.56;;;6.59;100.00
11198;BME280;5655;48.744;9.162;2023-04-10T03:01:10;96683.06;;;6.48;100.00
11198;BME280;5655;48.744;9.162;2023-04-10T03:03:35;96682.66;;;6.58;100.00
11198;BME280;5655;48.744;9.162;2023-04-10T03:06:01;96690.66;;;6.70;100.00
11198;BME280;5655;48.744;9.162;2023-04-10T03:08:26;96692.41;;;6.54;100.00
11198;BME280;5655;48.744;9.162;2023-04-10T03:10:51;96691.50;;;6.50;100.00
11198;BME280;5655;48.744;9.162;2023-04-10T03:13:17;96685.53;;;6.65;100.00
11198;BME280;5655;48.744;9.162;2023-04-10T03:15:42;96685.97;;;6.55;100.00
11198;BME280;5655;48.744;9.162;2023-04-10T03:18:08;96680.59;;;6.43;100.00
11198;BME280;5655;48.744;9.162;2023-04-10T03:20:37;96680.88;;;6.50;100.00
11198;BME280;5655;48.744;9.162;2023-04-10T03:23:05;96668.94;;;6.35;100.00
11198;BME280;5655;48.744;9.162;2023-04-10T03:25:33;96665.31;;;6.40;100.00
11198;BME280;5655;48.744;9.162;2023-04-10T03:27:58;96661.34;;;6.46;100.00
11198;BME280;5655;48.744;9.162;2023-04-10T03:30:23;96664.22;;;6.41;100.00
11198;BME280;5655;48.744;9.162;2023-04-10T03:32:48;96662.47;;;6.45;100.00
11198;BME280;5655;48.744;9.162;2023-04-10T03:35:14;96663.59;;;6.56;100.00
11198;BME280;5655;48.744;9.162;2023-04-10T03:37:39;96665.31;;;6.40;100.00
11198;BME280;5655;48.744;9.162;2023-04-10T03:40:07;96659.09;;;6.36;100.00
11198;BME280;5655;48.744;9.162;2023-04-10T03:42:33;96643.56;;;6.26;100.00
11198;BME280;5655;48.744;9.162;2023-04-10T03:44:58;96649.28;;;6.16;100.00
11198;BME280;5655;48.744;9.162;2023-04-10T03:47:25;96643.03;;;6.00;100.00
11198;BME280;5655;48.744;9.162;2023-04-10T03:49:50;96639.56;;;6.20;100.00
11198;BME280;5655;48.744;9.162;2023-04-10T03:52:16;96645.78;;;6.24;100.00
11198;BME280;5655;48.744;9.162;2023-04-10T03:54:41;96649.38;;;6.52;100.00
11198;BME280;5655;48.744;9.162;2023-04-10T03:57:06;96640.81;;;6.34;100.00
11198;BME280;5655;48.744;9.162;2023-04-10T03:59:32;96644.25;;;6.35;100.00
11198;BME280;5655;48.744;9.162;2023-04-10T04:01:57;96643.22;;;6.27;100.00
11198;BME280;5655;48.744;9.162;2023-04-10T04:04:22;96640.53;;;6.15;100.00
11198;BME280;5655;48.744;9.162;2023-04-10T04:06:47;96634.75;;;6.13;100.00
11198;BME280;5655;48.744;9.162;2023-04-10T04:09:13;96639.56;;;6.20;100.00
11198;BME280;5655;48.744;9.162;2023-04-10T04:11:38;96635.06;;;6.00;100.00
11198;BME280;5655;48.744;9.162;2023-04-10T04:14:03;96628.19;;;5.99;100.00
11198;BME280;5655;48.744;9.162;2023-04-10T04:16:29;96633.38;;;5.95;100.00
11198;BME280;5655;48.744;9.162;2023-04-10T04:18:54;96633.31;;;6.04;100.00
11198;BME280;5655;48.744;9.162;2023-04-10T04:21:20;96627.78;;;5.88;100.00
11198;BME280;5655;48.744;9.162;2023-04-10T04:23:45;96630.97;;;5.81;100.00
11198;BME280;5655;48.744;9.162;2023-04-10T04:26:10;96625.81;;;6.18;100.00
11198;BME280;5655;48.744;9.162;2023-04-10T04:28:35;96620.03;;;6.04;100.00
11198;BME280;5655;48.744;9.162;2023-04-10T04:31:01;96620.78;;;6.04;100.00
11198;BME280;5655;48.744;9.162;2023-04-10T04:33:26;96627.78;;;6.09;100.00
11198;BME280;5655;48.744;9.162;2023-04-10T04:35:52;96625.19;;;6.21;100.00
11198;BME280;5655;48.744;9.162;2023-04-10T04:38:17;96616.94;;;6.14;100.00
11198;BME280;5655;48.744;9.162;2023-04-10T04:40:44;96621.69;;;6.08;100.00
11198;BME280;5655;48.744;9.162;2023-04-10T04:43:09;96634.13;;;5.96;100.00
11198;BME280;5655;48.744;9.162;2023-04-10T04:45:35;96626.09;;;6.04;100.00
11198;BME280;5655;48.744;9.162;2023-04-10T04:48:00;96627.47;;;5.89;100.00
11198;BME280;5655;48.744;9.162;2023-04-10T04:50:25;96635.50;;;5.81;100.00
11198;BME280;5655;48.744;9.162;2023-04-10T04:52:51;96625.97;;;6.01;100.00
11198;BME280;5655;48.744;9.162;2023-04-10T04:55:16;96624.44;;;6.00;100.00
11198;BME280;5655;48.744;9.162;2023-04-10T04:57:41;96619.13;;;6.00;100.00
11198;BME280;5655;48.744;9.162;2023-04-10T05:00:07;96620.84;;;6.16;100.00
11198;BME280;5655;48.744;9.162;2023-04-10T05:02:32;96620.50;;;6.18;100.00
11198;BME280;5655;48.744;9.162;2023-04-10T05:04:58;96627.13;;;6.12;100.00
11198;BME280;5655;48.744;9.162;2023-04-10T05:07:23;96628.31;;;6.02;100.00
11198;BME280;5655;48.744;9.162;2023-04-10T05:09:49;96624.00;;;6.10;100.00
11198;BME280;5655;48.744;9.162;2023-04-10T05:12:14;96626.88;;;5.84;100.00
11198;BME280;5655;48.744;9.162;2023-04-10T05:14:40;96617.28;;;5.91;100.00
11198;BME280;5655;48.744;9.162;2023-04-10T05:17:05;96624.69;;;6.07;100.00
11198;BME280;5655;48.744;9.162;2023-04-10T05:19:30;96619.16;;;6.12;100.00
11198;BME280;5655;48.744;9.162;2023-04-10T05:21:57;96624.91;;;6.14;100.00
11198;BME280;5655;48.744;9.162;2023-04-10T05:24:22;96629.16;;;6.27;100.00
11198;BME280;5655;48.744;9.162;2023-04-10T05:26:47;96629.44;;;6.34;100.00
11198;BME280;5655;48.744;9.162;2023-04-10T05:29:13;96632.97;;;6.38;100.00
11198;BME280;5655;48.744;9.162;2023-04-10T05:31:38;96636.94;;;6.32;100.00
11198;BME280;5655;48.744;9.162;2023-04-10T05:34:03;96638.50;;;6.33;100.00
11198;BME280;5655;48.744;9.162;2023-04-10T05:36:29;96642.09;;;6.49;100.00
11198;BME280;5655;48.744;9.162;2023-04-10T05:38:54;96635.69;;;6.62;100.00
11198;BME280;5655;48.744;9.162;2023-04-10T05:41:19;96632.03;;;6.67;100.00
11198;BME280;5655;48.744;9.162;2023-04-10T05:43:45;96626.44;;;6.48;100.00
11198;BME280;5655;48.744;9.162;2023-04-10T05:46:11;96633.72;;;6.71;100.00
11198;BME280;5655;48.744;9.162;2023-04-10T05:48:36;96634.38;;;6.68;100.00
11198;BME280;5655;48.744;9.162;2023-04-10T05:51:01;96631.84;;;6.84;100.00
11198;BME280;5655;48.744;9.162;2023-04-10T05:53:28;96634.06;;;7.06;100.00
11198;BME280;5655;48.744;9.162;2023-04-10T05:55:55;96638.81;;;7.13;100.00
11198;BME280;5655;48.744;9.162;2023-04-10T05:58:21;96635.28;;;6.97;100.00
11198;BME280;5655;48.744;9.162;2023-04-10T06:00:46;96630.63;;;6.94;100.00
11198;BME280;5655;48.744;9.162;2023-04-10T06:03:11;96636.59;;;6.91;100.00
11198;BME280;5655;48.744;9.162;2023-04-10T06:05:37;96642.06;;;6.94;100.00
11198;BME280;5655;48.744;9.162;2023-04-10T06:08:02;96641.47;;;7.13;100.00
11198;BME280;5655;48.744;9.162;2023-04-10T06:10:28;96637.94;;;7.09;100.00
11198;BME280;5655;48.744;9.162;2023-04-10T06:12:54;96649.72;;;7.20;100.00
11198;BME280;5655;48.744;9.162;2023-04-10T06:15:20;96644.59;;;7.27;100.00
11198;BME280;5655;48.744;9.162;2023-04-10T06:17:45;96639.66;;;7.65;100.00
11198;BME280;5655;48.744;9.162;2023-04-10T06:20:11;96644.75;;;7.70;100.00
11198;BME280;5655;48.744;9.162;2023-04-10T06:22:36;96638.50;;;7.79;100.00
11198;BME280;5655;48.744;9.162;2023-04-10T06:25:02;96638.94;;;7.93;100.00
11198;BME280;5655;48.744;9.162;2023-04-10T06:27:27;96644.44;;;8.00;100.00
11198;BME280;5655;48.744;9.162;2023-04-10T06:29:53;96644.91;;;7.90;100.00
11198;BME280;5655;48.744;9.162;2023-04-10T06:32:18;96645.63;;;7.74;100.00
11198;BME280;5655;48.744;9.162;2023-04-10T06:34:43;96646.69;;;7.86;100.00
11198;BME280;5655;48.744;9.162;2023-04-10T06:37:09;96650.31;;;8.05;100.00
11198;BME280;5655;48.744;9.162;2023-04-10T06:39:34;96639.59;;;7.90;100.00
11198;BME280;5655;48.744;9.162;2023-04-10T06:42:00;96640.81;;;8.20;100.00
11198;BME280;5655;48.744;9.162;2023-04-10T06:44:26;96638.19;;;8.08;100.00
11198;BME280;5655;48.744;9.162;2023-04-10T06:46:51;96640.47;;;7.94;100.00
11198;BME280;5655;48.744;9.162;2023-04-10T06:49:17;96638.19;;;8.08;100.00
11198;BME280;5655;48.744;9.162;2023-04-10T06:51:43;96639.25;;;8.31;100.00
11198;BME280;5655;48.744;9.162;2023-04-10T06:54:09;96638.75;;;8.41;100.00
11198;BME280;5655;48.744;9.162;2023-04-10T06:56:35;96645.31;;;8.59;100.00
11198;BME280;5655;48.744;9.162;2023-04-10T06:59:00;96634.72;;;8.47;100.00
11198;BME280;5655;48.744;9.162;2023-04-10T07:01:25;96634.88;;;8.54;100.00
11198;BME280;5655;48.744;9.162;2023-04-10T07:03:51;96640.50;;;8.81;100.00
11198;BME280;5655;48.744;9.162;2023-04-10T07:06:16;96637.44;;;8.79;100.00
11198;BME280;5655;48.744;9.162;2023-04-10T07:08:41;96627.97;;;8.97;100.00
11198;BME280;5655;48.744;9.162;2023-04-10T07:11:06;96626.91;;;9.17;100.00
11198;BME280;5655;48.744;9.162;2023-04-10T07:13:32;96621.41;;;9.10;100.00
11198;BME280;5655;48.744;9.162;2023-04-10T07:15:59;96626.81;;;9.14;100.00
11198;BME280;5655;48.744;9.162;2023-04-10T07:18:25;96616.91;;;9.14;100.00
11198;BME280;5655;48.744;9.162;2023-04-10T07:20:51;96625.22;;;9.44;100.00
11198;BME280;5655;48.744;9.162;2023-04-10T07:23:16;96619.72;;;9.37;100.00
11198;BME280;5655;48.744;9.162;2023-04-10T07:25:41;96614.06;;;9.57;100.00
11198;BME280;5655;48.744;9.162;2023-04-10T07:28:07;96619.69;;;9.72;100.00
11198;BME280;5655;48.744;9.162;2023-04-10T07:30:32;96626.97;;;9.90;100.00
11198;BME280;5655;48.744;9.162;2023-04-10T07:32:57;96628.03;;;10.05;100.00
11198;BME280;5655;48.744;9.162;2023-04-10T07:35:22;96635.22;;;10.39;100.00
11198;BME280;5655;48.744;9.162;2023-04-10T07:37:48;96642.72;;;10.53;100.00
11198;BME280;5655;48.744;9.162;2023-04-10T07:40:16;96629.72;;;10.32;100.00
11198;BME280;5655;48.744;9.162;2023-04-10T07:42:41;96633.00;;;10.64;100.00
11198;BME280;5655;48.744;9.162;2023-04-10T07:45:07;96624.78;;;10.76;100.00
11198;BME280;5655;48.744;9.162;2023-04-10T07:47:32;96632.81;;;10.99;100.00
11198;BME280;5655;48.744;9.162;2023-04-10T07:49:58;96638.88;;;10.96;100.00
11198;BME280;5655;48.744;9.162;2023-04-10T07:52:23;96638.50;;;11.20;100.00
11198;BME280;5655;48.744;9.162;2023-04-10T07:54:48;96639.31;;;10.98;100.00
11198;BME280;5655;48.744;9.162;2023-04-10T07:57:14;96642.22;;;11.12;100.00
11198;BME280;5655;48.744;9.162;2023-04-10T07:59:40;96632.16;;;10.83;100.00
11198;BME280;5655;48.744;9.162;2023-04-10T08:02:05;96633.16;;;11.20;100.00
11198;BME280;5655;48.744;9.162;2023-04-10T08:04:31;96628.25;;;11.52;100.00
11198;BME280;5655;48.744;9.162;2023-04-10T08:06:56;96626.56;;;11.41;100.00
11198;BME280;5655;48.744;9.162;2023-04-10T08:09:21;96624.19;;;11.88;100.00
11198;BME280;5655;48.744;9.162;2023-04-10T08:11:46;96623.53;;;11.68;100.00
11198;BME280;5655;48.744;9.162;2023-04-10T08:14:12;96620.94;;;11.75;100.00
11198;BME280;5655;48.744;9.162;2023-04-10T08:16:37;96626.50;;;11.63;100.00
11198;BME280;5655;48.744;9.162;2023-04-10T08:19:03;96620.38;;;11.89;100.00
11198;BME280;5655;48.744;9.162;2023-04-10T08:21:29;96628.16;;;11.71;100.00
11198;BME280;5655;48.744;9.162;2023-04-10T08:23:57;96624.38;;;12.02;100.00
11198;BME280;5655;48.744;9.162;2023-04-10T08:26:24;96623.16;;;12.30;100.00
11198;BME280;5655;48.744;9.162;2023-04-10T08:28:51;96622.75;;;12.31;100.00
11198;BME280;5655;48.744;9.162;2023-04-10T08:31:18;96618.06;;;12.58;100.00
11198;BME280;5655;48.744;9.162;2023-04-10T08:33:43;96621.38;;;12.44;100.00
11198;BME280;5655;48.744;9.162;2023-04-10T08:36:09;96626.31;;;12.79;100.00
11198;BME280;5655;48.744;9.162;2023-04-10T08:38:34;96620.44;;;12.66;100.00
11198;BME280;5655;48.744;9.162;2023-04-10T08:41:00;96627.94;;;12.47;100.00
11198;BME280;5655;48.744;9.162;2023-04-10T08:43:25;96625.09;;;12.73;100.00
11198;BME280;5655;48.744;9.162;2023-04-10T08:45:51;96619.00;;;12.72;100.00
11198;BME280;5655;48.744;9.162;2023-04-10T08:48:18;96618.59;;;13.14;100.00
11198;BME280;5655;48.744;9.162;2023-04-10T08:50:45;96604.81;;;13.20;100.00
11198;BME280;5655;48.744;9.162;2023-04-10T08:53:12;96614.16;;;13.40;100.00
11198;BME280;5655;48.744;9.162;2023-04-10T08:55:40;96615.56;;;13.20;100.00
11198;BME280;5655;48.744;9.162;2023-04-10T08:58:06;96614.06;;;13.26;99.46
11198;BME280;5655;48.744;9.162;2023-04-10T09:00:35;96613.50;;;13.53;98.15
11198;BME280;5655;48.744;9.162;2023-04-10T09:03:03;96610.34;;;13.41;90.26
11198;BME280;5655;48.744;9.162;2023-04-10T09:05:32;96612.50;;;13.21;97.67
11198;BME280;5655;48.744;9.162;2023-04-10T09:07:59;96607.25;;;13.39;88.51
11198;BME280;5655;48.744;9.162;2023-04-10T09:10:25;96608.94;;;13.68;92.47
11198;BME280;5655;48.744;9.162;2023-04-10T09:12:51;96610.75;;;14.26;90.01
11198;BME280;5655;48.744;9.162;2023-04-10T09:15:16;96616.84;;;14.08;84.42
11198;BME280;5655;48.744;9.162;2023-04-10T09:17:55;96614.72;;;14.57;82.42
11198;BME280;5655;48.744;9.162;2023-04-10T09:20:22;96607.78;;;14.59;84.61
11198;BME280;5655;48.744;9.162;2023-04-10T09:22:47;96612.06;;;14.88;77.82
11198;BME280;5655;48.744;9.162;2023-04-10T09:25:33;96610.91;;;15.04;74.47
11198;BME280;5655;48.744;9.162;2023-04-10T09:28:00;96606.69;;;14.88;70.22
11198;BME280;5655;48.744;9.162;2023-04-10T09:30:40;96603.59;;;15.01;71.41
11198;BME280;5655;48.744;9.162;2023-04-10T09:33:25;96603.19;;;15.20;68.00
11198;BME280;5655;48.744;9.162;2023-04-10T09:35:52;96595.50;;;15.01;68.14
11198;BME280;5655;48.744;9.162;2023-04-10T09:38:19;96594.72;;;15.39;67.12
11198;BME280;5655;48.744;9.162;2023-04-10T09:40:46;96587.00;;;15.34;63.96
11198;BME280;5655;48.744;9.162;2023-04-10T09:43:23;96571.53;;;15.73;62.29
11198;BME280;5655;48.744;9.162;2023-04-10T09:45:54;96563.78;;;15.82;60.48
11198;BME280;5655;48.744;9.162;2023-04-10T09:48:21;96562.16;;;16.03;59.59
11198;BME280;5655;48.744;9.162;2023-04-10T09:50:47;96558.19;;;16.25;58.79
11198;BME280;5655;48.744;9.162;2023-04-10T09:53:15;96545.81;;;16.27;56.54
11198;BME280;5655;48.744;9.162;2023-04-10T09:55:42;96549.56;;;16.44;55.80
11198;BME280;5655;48.744;9.162;2023-04-10T09:58:08;96558.00;;;16.60;56.37
11198;BME280;5655;48.744;9.162;2023-04-10T10:00:40;96545.53;;;16.77;57.11
11198;BME280;5655;48.744;9.162;2023-04-10T10:03:07;96543.22;;;16.75;55.75
11198;BME280;5655;48.744;9.162;2023-04-10T10:05:36;96539.41;;;16.66;56.42
11198;BME280;5655;48.744;9.162;2023-04-10T10:08:02;96533.13;;;16.79;56.77
11198;BME280;5655;48.744;9.162;2023-04-10T10:10:29;96531.44;;;16.96;52.40
11198;BME280;5655;48.744;9.162;2023-04-10T10:12:57;96532.09;;;17.11;51.96
11198;BME280;5655;48.744;9.162;2023-04-10T10:18:16;96527.06;;;17.50;50.24
11198;BME280;5655;48.744;9.162;2023-04-10T10:20:44;96523.00;;;17.69;49.12
11198;BME280;5655;48.744;9.162;2023-04-10T10:23:11;96517.63;;;17.65;47.72
11198;BME280;5655;48.744;9.162;2023-04-10T10:25:38;96510.03;;;17.53;45.49
11198;BME280;5655;48.744;9.162;2023-04-10T10:28:04;96517.59;;;17.69;45.03
11198;BME280;5655;48.744;9.162;2023-04-10T10:30:33;96510.06;;;18.14;45.67
11198;BME280;5655;48.744;9.162;2023-04-10T10:33:02;96500.06;;;18.11;44.81
11198;BME280;5655;48.744;9.162;2023-04-10T10:35:30;96491.56;;;17.79;45.46
11198;BME280;5655;48.744;9.162;2023-04-10T10:37:57;96498.41;;;18.17;44.67
11198;BME280;5655;48.744;9.162;2023-04-10T10:40:41;96481.22;;;18.81;45.29
11198;BME280;5655;48.744;9.162;2023-04-10T10:43:22;96481.06;;;18.65;44.32
11198;BME280;5655;48.744;9.162;2023-04-10T10:45:54;96481.38;;;18.70;43.03
11198;BME280;5655;48.744;9.162;2023-04-10T10:48:22;96483.38;;;18.89;42.48
11198;BME280;5655;48.744;9.162;2023-04-10T10:50:53;96474.06;;;18.67;41.80
11198;BME280;5655;48.744;9.162;2023-04-10T10:53:41;96465.16;;;18.67;41.75
11198;BME280;5655;48.744;9.162;2023-04-10T11:01:10;96470.53;;;18.70;42.33
11198;BME280;5655;48.744;9.162;2023-04-10T11:03:36;96464.41;;;18.39;42.35
11198;BME280;5655;48.744;9.162;2023-04-10T11:06:06;96461.72;;;18.86;42.13
11198;BME280;5655;48.744;9.162;2023-04-10T11:13:23;96460.69;;;18.80;41.58
11198;BME280;5655;48.744;9.162;2023-04-10T11:15:50;96458.22;;;19.52;41.40
11198;BME280;5655;48.744;9.162;2023-04-10T11:18:15;96448.88;;;19.53;40.66
11198;BME280;5655;48.744;9.162;2023-04-10T11:21:07;96455.09;;;19.89;40.25
11198;BME280;5655;48.744;9.162;2023-04-10T11:23:34;96443.25;;;20.15;39.12
11198;BME280;5655;48.744;9.162;2023-04-10T11:26:00;96453.13;;;20.25;38.86
11198;BME280;5655;48.744;9.162;2023-04-10T11:31:16;96445.34;;;20.60;38.87
11198;BME280;5655;48.744;9.162;2023-04-10T11:33:47;96444.50;;;20.47;38.84
11198;BME280;5655;48.744;9.162;2023-04-10T11:36:14;96434.91;;;20.58;39.59
11198;BME280;5655;48.744;9.162;2023-04-10T11:39:01;96438.81;;;21.18;41.51
11198;BME280;5655;48.744;9.162;2023-04-10T11:41:32;96439.66;;;21.86;40.41
11198;BME280;5655;48.744;9.162;2023-04-10T11:43:59;96433.31;;;21.76;37.19
11198;BME280;5655;48.744;9.162;2023-04-10T11:46:25;96435.81;;;21.70;36.38
11198;BME280;5655;48.744;9.162;2023-04-10T11:48:58;96445.81;;;22.02;36.24
11198;BME280;5655;48.744;9.162;2023-04-10T11:51:24;96435.56;;;21.52;35.57
11198;BME280;5655;48.744;9.162;2023-04-10T11:54:10;96423.63;;;21.34;35.67
11198;BME280;5655;48.744;9.162;2023-04-10T11:56:37;96437.19;;;22.29;34.87
11198;BME280;5655;48.744;9.162;2023-04-10T11:59:02;96426.50;;;22.22;33.76
11198;BME280;5655;48.744;9.162;2023-04-10T12:01:32;96414.78;;;21.71;33.76
11198;BME280;5655;48.744;9.162;2023-04-10T12:03:58;96407.50;;;22.31;33.23
11198;BME280;5655;48.744;9.162;2023-04-10T12:06:24;96405.84;;;22.59;33.89
11198;BME280;5655;48.744;9.162;2023-04-10T12:08:49;96388.81;;;22.55;33.26
11198;BME280;5655;48.744;9.162;2023-04-10T12:11:20;96390.75;;;22.67;33.56
11198;BME280;5655;48.744;9.162;2023-04-10T12:13:47;96393.19;;;22.40;31.64
11198;BME280;5655;48.744;9.162;2023-04-10T12:16:13;96383.63;;;22.23;31.75
11198;BME280;5655;48.744;9.162;2023-04-10T12:18:38;96367.97;;;22.95;31.35
11198;BME280;5655;48.744;9.162;2023-04-10T12:21:05;96378.56;;;22.59;31.05
11198;BME280;5655;48.744;9.162;2023-04-10T12:23:31;96382.81;;;22.60;30.67
11198;BME280;5655;48.744;9.162;2023-04-10T12:28:35;96377.56;;;22.53;30.60
11198;BME280;5655;48.744;9.162;2023-04-10T12:31:01;96368.38;;;22.12;31.27
11198;BME280;5655;48.744;9.162;2023-04-10T12:33:27;96365.22;;;22.61;31.62
11198;BME280;5655;48.744;9.162;2023-04-10T12:35:52;96368.47;;;21.71;30.38
11198;BME280;5655;48.744;9.162;2023-04-10T12:38:54;96367.50;;;21.90;30.97
11198;BME280;5655;48.744;9.162;2023-04-10T12:41:24;96375.44;;;21.72;30.42
11198;BME280;5655;48.744;9.162;2023-04-10T12:43:52;96357.78;;;21.77;31.12
11198;BME280;5655;48.744;9.162;2023-04-10T12:46:28;96359.88;;;21.98;30.23
11198;BME280;5655;48.744;9.162;2023-04-10T12:48:54;96361.69;;;21.63;30.99
11198;BME280;5655;48.744;9.162;2023-04-10T12:51:40;96360.50;;;21.89;30.75
11198;BME280;5655;48.744;9.162;2023-04-10T12:54:06;96350.25;;;21.68;30.08
11198;BME280;5655;48.744;9.162;2023-04-10T12:56:41;96348.75;;;21.92;30.87
11198;BME280;5655;48.744;9.162;2023-04-10T12:59:07;96350.91;;;21.47;31.22
11198;BME280;5655;48.744;9.162;2023-04-10T13:01:32;96351.13;;;21.90;31.40
11198;BME280;5655;48.744;9.162;2023-04-10T13:03:57;96342.63;;;21.63;31.97
11198;BME280;5655;48.744;9.162;2023-04-10T13:06:23;96352.31;;;21.39;31.67
11198;BME280;5655;48.744;9.162;2023-04-10T13:08:48;96345.97;;;21.42;31.89
11198;BME280;5655;48.744;9.162;2023-04-10T13:11:16;96337.19;;;21.63;32.19
11198;BME280;5655;48.744;9.162;2023-04-10T13:13:42;96338.28;;;21.78;32.11
11198;BME280;5655;48.744;9.162;2023-04-10T13:16:07;96332.38;;;21.67;32.76
11198;BME280;5655;48.744;9.162;2023-04-10T13:18:36;96324.78;;;21.87;32.23
11198;BME280;5655;48.744;9.162;2023-04-10T13:21:03;96335.13;;;22.05;33.46
11198;BME280;5655;48.744;9.162;2023-04-10T13:23:28;96330.22;;;21.87;32.64
11198;BME280;5655;48.744;9.162;2023-04-10T13:25:53;96317.38;;;22.00;33.49
11198;BME280;5655;48.744;9.162;2023-04-10T13:28:20;96316.16;;;21.76;33.24
11198;BME280;5655;48.744;9.162;2023-04-10T13:30:46;96321.50;;;21.92;33.27
11198;BME280;5655;48.744;9.162;2023-04-10T13:33:11;96317.34;;;21.50;33.31
11198;BME280;5655;48.744;9.162;2023-04-10T13:35:37;96324.66;;;21.53;32.86
11198;BME280;5655;48.744;9.162;2023-04-10T13:38:04;96315.25;;;21.41;33.53